^^
Saratoga-Weather Station Historical Data
Daily Summary for January 12, 2018 Units:  English    Metric   Both
Daily Weekly Monthly Yearly Custom
  High: Low: Average:
Temperature: 60.3 °F 42.5 °F 53.4 °F
Dew Point: 59.4 °F 41.2 °F 52.5 °F
Humidity: 97% 95% 97%
Wind Speed: 13.5mph 0.0mph 4.3mph
Wind Gust: 26.5mph - -
Wind- - SSE
Pressure: 30.13 in 29.48 in -
Precipitation: 0.83 in    
Historical Graphs
 
 
Tabular Data for January 12, 2018
Time Temperature Dew Point Pressure Wind Wind Speed Wind Gust Humidity Rainfall Rate (Hourly) solar
00:00 42.5 °F 41.2 °F 30.13 in Calm     95% 0.00 in 0.0 W/m2
00:08 42.5 °F 41.2 °F 30.13 in Calm     95% 0.00 in 0.0 W/m2
00:15 42.5 °F 41.2 °F 30.13 in Calm     95% 0.00 in 0.0 W/m2
00:24 42.5 °F 41.2 °F 30.12 in Calm     95% 0.00 in 0.0 W/m2
00:31 42.6 °F 41.3 °F 30.12 in Calm   1.2 mph 95% 0.00 in 0.0 W/m2
00:41 42.8 °F 41.5 °F 30.12 in SE 2.3 mph 3.5 mph 95% 0.00 in 0.0 W/m2
00:49 42.8 °F 41.5 °F 30.11 in SE 1.7 mph 2.3 mph 95% 0.00 in 0.0 W/m2
01:06 42.8 °F 41.5 °F 30.10 in SE 2.7 mph 6.9 mph 95% 0.00 in 0.0 W/m2
01:12 43.1 °F 41.8 °F 30.11 in SSW 1.8 mph 5.8 mph 95% 0.00 in 0.0 W/m2
01:20 43.3 °F 42.0 °F 30.10 in SSE 1.6 mph 2.3 mph 95% 0.00 in 0.0 W/m2
01:25 43.3 °F 42.0 °F 30.10 in SSE 0.2 mph 1.0 mph 95% 0.00 in 0.0 W/m2
01:42 43.0 °F 41.7 °F 30.08 in SSE 0.2 mph 2.3 mph 95% 0.00 in 0.0 W/m2
02:03 42.7 °F 41.4 °F 30.08 in Calm   1.2 mph 95% 0.00 in 0.0 W/m2
02:09 42.6 °F 41.3 °F 30.08 in SW 0.6 mph 1.0 mph 95% 0.00 in 0.0 W/m2
02:18 42.6 °F 41.3 °F 30.08 in Calm     95% 0.00 in 0.0 W/m2
02:25 42.7 °F 41.4 °F 30.07 in Calm     95% 0.00 in 0.0 W/m2
02:39 42.7 °F 41.4 °F 30.07 in South 0.1 mph 1.2 mph 95% 0.00 in 0.0 W/m2
02:50 42.9 °F 41.8 °F 30.06 in Calm     96% 0.00 in 0.0 W/m2
02:59 43.2 °F 42.1 °F 30.06 in Calm     96% 0.00 in 0.0 W/m2
03:04 43.6 °F 42.5 °F 30.05 in South 0.4 mph 2.3 mph 96% 0.00 in 0.0 W/m2
03:12 43.8 °F 42.7 °F 30.05 in Calm     96% 0.00 in 0.0 W/m2
03:31 44.3 °F 43.2 °F 30.03 in Calm     96% 0.00 in 0.0 W/m2
03:49 44.5 °F 43.4 °F 30.01 in South 0.2 mph 1.0 mph 96% 0.00 in 0.0 W/m2
03:54 44.6 °F 43.5 °F 30.01 in South 0.1 mph 1.2 mph 96% 0.00 in 0.0 W/m2
04:01 44.7 °F 43.6 °F 30.01 in SSE 0.2 mph 1.2 mph 96% 0.00 in 0.0 W/m2
04:19 44.1 °F 43.0 °F 30.01 in WNW 1.4 mph 2.3 mph 96% 0.00 in 0.0 W/m2
04:24 44.3 °F 43.2 °F 30.01 in Calm     96% 0.00 in 0.0 W/m2
04:29 44.2 °F 43.1 °F 30.01 in WNW 1.1 mph 1.2 mph 96% 0.00 in 0.0 W/m2
04:37 43.7 °F 42.6 °F 30.00 in Calm     96% 0.00 in 0.0 W/m2
04:45 43.6 °F 42.5 °F 30.00 in Calm     96% 0.00 in 0.0 W/m2
04:54 43.6 °F 42.5 °F 29.99 in Calm     96% 0.00 in 0.0 W/m2
05:02 44.2 °F 43.1 °F 29.99 in West 0.1 mph   96% 0.00 in 0.0 W/m2
05:08 45.0 °F 43.9 °F 29.99 in West 0.1 mph 1.2 mph 96% 0.00 in 0.0 W/m2
05:22 45.5 °F 44.4 °F 29.99 in Calm     96% 0.00 in 0.0 W/m2
05:31 45.6 °F 44.5 °F 29.99 in SW 0.7 mph 2.3 mph 96% 0.00 in 0.0 W/m2
05:39 46.5 °F 45.4 °F 29.98 in SE 0.6 mph 3.5 mph 96% 0.00 in 0.0 W/m2
06:15 50.9 °F 50.1 °F 29.97 in SSE 7.6 mph 11.5 mph 97% 0.00 in 0.0 W/m2
06:20 51.3 °F 50.5 °F 29.97 in SE 3.7 mph 6.0 mph 97% 0.00 in 0.0 W/m2
06:28 51.9 °F 51.1 °F 29.96 in SE 6.4 mph 10.4 mph 97% 0.00 in 0.0 W/m2
06:33 52.1 °F 51.3 °F 29.96 in SE 5.7 mph 9.2 mph 97% 0.01 in 0.0 W/m2
06:38 52.4 °F 51.6 °F 29.95 in SE 5.8 mph 9.2 mph 97% 0.01 in 0.0 W/m2
06:43 52.4 °F 51.6 °F 29.95 in SE 4.0 mph 11.5 mph 97% 0.01 in 0.0 W/m2
06:58 52.5 °F 51.7 °F 29.95 in SE 4.6 mph 7.0 mph 97% 0.01 in 0.0 W/m2
07:06 52.5 °F 51.7 °F 29.94 in SSE 5.2 mph 7.0 mph 97% 0.01 in 0.0 W/m2
07:17 52.7 °F 51.9 °F 29.94 in SE 5.4 mph 9.2 mph 97% 0.01 in 0.0 W/m2
07:24 52.7 °F 51.9 °F 29.94 in SE 5.3 mph 8.0 mph 97% 0.01 in 0.0 W/m2
07:34 52.9 °F 52.1 °F 29.93 in SSE 5.0 mph 9.0 mph 97% 0.00 in 7.0 W/m2
07:40 53.0 °F 52.2 °F 29.93 in SE 3.9 mph 8.1 mph 97% 0.00 in 7.0 W/m2
07:47 53.2 °F 52.4 °F 29.93 in SE 6.3 mph 11.5 mph 97% 0.00 in 11.0 W/m2
07:56 53.3 °F 52.5 °F 29.92 in SE 4.1 mph 8.0 mph 97% 0.00 in 14.0 W/m2
08:16 53.7 °F 52.9 °F 29.91 in SE 5.5 mph 9.2 mph 97% 0.00 in 21.0 W/m2
08:22 53.9 °F 53.1 °F 29.91 in SE 7.3 mph 9.2 mph 97% 0.00 in 23.0 W/m2
08:32 54.1 °F 53.3 °F 29.91 in South 5.0 mph 8.1 mph 97% 0.00 in 18.0 W/m2
08:37 54.1 °F 53.3 °F 29.91 in SE 6.0 mph 6.9 mph 97% 0.00 in 26.0 W/m2
08:46 54.4 °F 53.6 °F 29.90 in SE 6.6 mph 10.0 mph 97% 0.00 in 21.0 W/m2
09:03 54.5 °F 53.7 °F 29.89 in ESE 7.8 mph 10.0 mph 97% 0.00 in 39.0 W/m2
09:13 54.9 °F 54.1 °F 29.89 in SE 7.5 mph 11.5 mph 97% 0.00 in 46.0 W/m2
09:18 54.9 °F 54.1 °F 29.89 in SSE 6.7 mph 10.4 mph 97% 0.00 in 63.0 W/m2
09:27 55.1 °F 54.3 °F 29.88 in SE 8.3 mph 11.5 mph 97% 0.00 in 77.0 W/m2
09:33 55.3 °F 54.5 °F 29.88 in SE 9.0 mph 12.7 mph 97% 0.00 in 62.0 W/m2
09:39 55.2 °F 54.4 °F 29.88 in ESE 7.7 mph 11.5 mph 97% 0.00 in 58.0 W/m2
09:44 55.3 °F 54.5 °F 29.88 in SE 6.6 mph 12.7 mph 97% 0.01 in 37.0 W/m2
09:51 55.6 °F 54.8 °F 29.87 in SSE 5.4 mph 11.5 mph 97% 0.01 in 46.0 W/m2
10:02 55.8 °F 55.0 °F 29.87 in SE 5.4 mph 10.4 mph 97% 0.03 in 35.0 W/m2
10:10 56.0 °F 55.2 °F 29.86 in SE 4.9 mph 10.4 mph 97% 0.04 in 30.0 W/m2
10:21 56.3 °F 55.5 °F 29.85 in SE 4.6 mph 10.4 mph 97% 0.05 in 49.0 W/m2
10:36 56.9 °F 56.1 °F 29.84 in SSE 5.6 mph 9.2 mph 97% 0.07 in 46.0 W/m2
10:43 57.2 °F 56.4 °F 29.84 in SE 6.8 mph 11.5 mph 97% 0.07 in 40.0 W/m2
10:53 57.7 °F 56.9 °F 29.83 in SSE 5.2 mph 6.9 mph 97% 0.08 in 46.0 W/m2
11:01 58.1 °F 57.3 °F 29.82 in SE 6.9 mph 9.2 mph 97% 0.06 in 49.0 W/m2
11:11 58.3 °F 57.5 °F 29.81 in SE 7.1 mph 15.0 mph 97% 0.06 in 44.0 W/m2
11:16 58.5 °F 57.7 °F 29.82 in SSE 7.7 mph 13.8 mph 97% 0.05 in 30.0 W/m2
11:30 58.8 °F 58.0 °F 29.80 in SE 7.5 mph 11.5 mph 97% 0.05 in 39.0 W/m2
11:38 58.9 °F 58.1 °F 29.80 in South 9.1 mph 17.3 mph 97% 0.04 in 42.0 W/m2
11:46 59.0 °F 58.2 °F 29.80 in SE 13.5 mph 21.0 mph 97% 0.04 in 69.0 W/m2
11:54 59.1 °F 58.2 °F 29.79 in SE 6.3 mph 9.2 mph 97% 0.04 in 60.0 W/m2
12:00 59.1 °F 58.2 °F 29.79 in SE 7.1 mph 11.5 mph 97% 0.04 in 62.0 W/m2
12:05 59.1 °F 58.2 °F 29.78 in SSE 8.1 mph 11.5 mph 97% 0.04 in 86.0 W/m2
12:12 59.2 °F 58.3 °F 29.78 in South 9.8 mph 11.5 mph 97% 0.04 in 62.0 W/m2
12:22 59.2 °F 58.3 °F 29.77 in SSE 10.4 mph 13.8 mph 97% 0.04 in 113.0 W/m2
12:32 59.3 °F 58.4 °F 29.76 in South 11.6 mph 13.8 mph 97% 0.04 in 69.0 W/m2
12:40 59.5 °F 58.6 °F 29.75 in SW 13.0 mph 26.5 mph 97% 0.05 in 60.0 W/m2
12:53 59.9 °F 59.0 °F 29.75 in SSE 5.2 mph 19.6 mph 97% 0.04 in 51.0 W/m2
13:02 59.8 °F 58.9 °F 29.74 in SSE 9.1 mph 24.2 mph 97% 0.03 in 28.0 W/m2
13:26 60.1 °F 59.2 °F 29.73 in SSE 11.6 mph 17.3 mph 97% 0.02 in 39.0 W/m2
13:43 60.3 °F 59.4 °F 29.73 in SW 9.4 mph 12.7 mph 97% 0.01 in 32.0 W/m2
13:53 59.6 °F 58.7 °F 29.74 in South 6.9 mph 12.7 mph 97% 0.03 in 19.0 W/m2
14:02 59.3 °F 58.4 °F 29.73 in SE 6.2 mph 11.5 mph 97% 0.05 in 21.0 W/m2
14:17 59.2 °F 58.3 °F 29.72 in South 6.7 mph 13.8 mph 97% 0.09 in 32.0 W/m2
14:28 58.8 °F 58.0 °F 29.72 in SSE 4.7 mph 8.1 mph 97% 0.10 in 28.0 W/m2
14:42 58.7 °F 57.9 °F 29.72 in SSE 6.9 mph 11.5 mph 97% 0.10 in 21.0 W/m2
14:55 58.6 °F 57.8 °F 29.71 in SSE 6.1 mph 11.5 mph 97% 0.09 in 19.0 W/m2
15:11 58.5 °F 57.7 °F 29.70 in SSE 5.8 mph 9.2 mph 97% 0.04 in 18.0 W/m2
15:20 58.8 °F 58.0 °F 29.70 in SSE 5.7 mph 8.1 mph 97% 0.02 in 12.0 W/m2
16:02 59.7 °F 58.8 °F 29.69 in South 7.5 mph 7.5 mph 97% 0.04 in 0.0 W/m2
16:17 59.9 °F 59.0 °F 29.67 in ESE 5.0 mph 9.2 mph 97% 0.06 in 0.0 W/m2
16:24 60.0 °F 59.1 °F 29.67 in SE 4.0 mph 8.1 mph 97% 0.07 in 0.0 W/m2
16:39 59.7 °F 58.8 °F 29.66 in SE 5.1 mph 8.0 mph 97% 0.09 in 0.0 W/m2
16:52 59.5 °F 58.6 °F 29.66 in SE 4.0 mph 6.9 mph 97% 0.10 in 0.0 W/m2
16:57 59.5 °F 58.6 °F 29.65 in SSE 5.7 mph 5.8 mph 97% 0.11 in 0.0 W/m2
17:05 59.4 °F 58.5 °F 29.65 in SE 3.2 mph 3.5 mph 97% 0.12 in 0.0 W/m2
17:12 59.4 °F 58.5 °F 29.65 in SE 6.7 mph 9.2 mph 97% 0.13 in 0.0 W/m2
17:17 59.8 °F 58.9 °F 29.65 in SSE 5.9 mph 10.4 mph 97% 0.14 in 0.0 W/m2
17:29 60.0 °F 59.1 °F 29.66 in SSE 5.4 mph 11.5 mph 97% 0.15 in 0.0 W/m2
17:39 59.7 °F 58.8 °F 29.66 in SW 4.7 mph 11.5 mph 97% 0.16 in 0.0 W/m2
17:44 59.7 °F 58.8 °F 29.66 in SSW 5.1 mph 10.4 mph 97% 0.16 in 0.0 W/m2
17:52 59.6 °F 58.7 °F 29.66 in SSW 6.2 mph 11.5 mph 97% 0.17 in 0.0 W/m2
18:05 59.3 °F 58.4 °F 29.65 in SE 7.1 mph 11.5 mph 97% 0.17 in 0.0 W/m2
18:14 59.2 °F 58.3 °F 29.65 in SSE 3.4 mph 9.2 mph 97% 0.17 in 0.0 W/m2
18:27 59.1 °F 58.2 °F 29.65 in SSE 5.6 mph 11.0 mph 97% 0.16 in 0.0 W/m2
18:44 58.7 °F 57.9 °F 29.65 in South 5.8 mph 5.8 mph 97% 0.14 in 0.0 W/m2
18:58 58.4 °F 57.6 °F 29.65 in SSE 4.6 mph 9.2 mph 97% 0.12 in 0.0 W/m2
19:03 58.2 °F 57.4 °F 29.65 in SE 5.3 mph 9.2 mph 97% 0.10 in 0.0 W/m2
19:23 57.8 °F 57.0 °F 29.64 in SW 3.9 mph 9.2 mph 97% 0.08 in 0.0 W/m2
19:28 57.7 °F 56.9 °F 29.64 in SSE 5.4 mph 8.1 mph 97% 0.07 in 0.0 W/m2
19:34 57.6 °F 56.8 °F 29.63 in SE 2.8 mph 8.1 mph 97% 0.06 in 0.0 W/m2
19:50 57.7 °F 56.9 °F 29.62 in SSE 4.9 mph 6.9 mph 97% 0.03 in 0.0 W/m2
20:02 57.7 °F 56.9 °F 29.62 in SSE 4.2 mph 10.4 mph 97% 0.02 in 0.0 W/m2
20:31 57.1 °F 56.3 °F 29.61 in SE 4.2 mph 11.5 mph 97% 0.00 in 0.0 W/m2
20:41 57.0 °F 56.2 °F 29.60 in SSE 6.5 mph 10.4 mph 97% 0.01 in 0.0 W/m2
20:50 56.9 °F 56.1 °F 29.60 in SSE 4.0 mph 5.8 mph 97% 0.01 in 0.0 W/m2
21:05 56.7 °F 55.9 °F 29.59 in South 0.9 mph 3.5 mph 97% 0.02 in 0.0 W/m2
21:12 56.6 °F 55.8 °F 29.59 in SE 2.1 mph 3.5 mph 97% 0.02 in 0.0 W/m2
21:37 56.6 °F 55.8 °F 29.58 in South 3.7 mph 15.0 mph 97% 0.03 in 0.0 W/m2
21:48 56.5 °F 55.7 °F 29.58 in SE 3.8 mph 4.0 mph 97% 0.03 in 0.0 W/m2
21:57 56.4 °F 55.6 °F 29.57 in SE 3.8 mph 8.0 mph 97% 0.02 in 0.0 W/m2
22:03 56.3 °F 55.5 °F 29.56 in SSE 3.0 mph 4.0 mph 97% 0.02 in 0.0 W/m2
22:11 56.2 °F 55.4 °F 29.56 in SE 3.4 mph 4.6 mph 97% 0.03 in 0.0 W/m2
22:25 56.0 °F 55.2 °F 29.54 in SE 3.2 mph 4.6 mph 97% 0.02 in 0.0 W/m2
22:35 55.9 °F 55.1 °F 29.54 in SE 1.9 mph 3.5 mph 97% 0.02 in 0.0 W/m2
23:04 55.7 °F 54.9 °F 29.51 in SE 3.7 mph 5.8 mph 97% 0.02 in 0.0 W/m2
23:10 55.7 °F 54.9 °F 29.50 in SE 1.2 mph 3.5 mph 97% 0.01 in 0.0 W/m2
23:16 55.7 °F 54.9 °F 29.50 in SE 4.8 mph 5.8 mph 97% 0.02 in 0.0 W/m2
23:26 55.9 °F 55.1 °F 29.50 in SE 2.6 mph 4.6 mph 97% 0.02 in 0.0 W/m2
23:31 55.9 °F 55.1 °F 29.49 in SE 3.9 mph 8.0 mph 97% 0.02 in 0.0 W/m2
23:36 55.9 °F 55.1 °F 29.49 in SW 3.0 mph 3.5 mph 97% 0.03 in 0.0 W/m2
23:48 55.4 °F 54.6 °F 29.48 in West 0.1 mph 1.0 mph 97% 0.02 in 0.0 W/m2
Juneau County Weather
Compliments of Weather Underground - 2.25 mb